Terminal Aerodrome Forecast
Issued by NWS Greer, SC

Home | Current Version | Previous Version | Text Only | Print | Product List | Glossary On
Versions: 1 2 3 4 5 6 7 8 9 10 11 12 13 14 15 16
000
FTUS42 KGSP 172300
TAFAVL
TAF
KAVL 172331Z 1800/1824 15005KT P6SM FEW250
     FM180300 00000KT P6SM FEW250
     FM181800 14006KT P6SM OVC160
     FM182100 35009KT P6SM -RA OVC030=

USA.gov is the U.S. government's official web portal to all federal, state and local government web resources and services.